sensor_id;sensor_type;location;lat;lon;timestamp;temperature;humidity
21616;DHT22;10970;48.714;9.584;2023-05-06T00:00:39;14.10;99.90
21616;DHT22;10970;48.714;9.584;2023-05-06T00:03:05;14.10;99.90
21616;DHT22;10970;48.714;9.584;2023-05-06T00:05:30;14.10;99.90
21616;DHT22;10970;48.714;9.584;2023-05-06T00:07:56;14.10;99.90
21616;DHT22;10970;48.714;9.584;2023-05-06T00:10:22;14.10;99.90
21616;DHT22;10970;48.714;9.584;2023-05-06T00:12:48;14.20;99.90
21616;DHT22;10970;48.714;9.584;2023-05-06T00:15:13;14.10;99.90
21616;DHT22;10970;48.714;9.584;2023-05-06T00:17:39;14.10;99.90
21616;DHT22;10970;48.714;9.584;2023-05-06T00:20:05;14.10;99.90
21616;DHT22;10970;48.714;9.584;2023-05-06T00:22:31;14.10;99.90
21616;DHT22;10970;48.714;9.584;2023-05-06T00:24:57;14.10;99.90
21616;DHT22;10970;48.714;9.584;2023-05-06T00:27:22;14.10;99.90
21616;DHT22;10970;48.714;9.584;2023-05-06T00:29:48;14.10;99.90
21616;DHT22;10970;48.714;9.584;2023-05-06T00:32:14;14.10;99.90
21616;DHT22;10970;48.714;9.584;2023-05-06T00:34:39;14.10;99.90
21616;DHT22;10970;48.714;9.584;2023-05-06T00:37:05;14.10;99.90
21616;DHT22;10970;48.714;9.584;2023-05-06T00:39:30;14.10;99.90
21616;DHT22;10970;48.714;9.584;2023-05-06T00:42:00;14.10;99.90
21616;DHT22;10970;48.714;9.584;2023-05-06T00:44:29;14.10;99.90
21616;DHT22;10970;48.714;9.584;2023-05-06T00:46:55;14.00;99.90
21616;DHT22;10970;48.714;9.584;2023-05-06T00:49:22;14.00;99.90
21616;DHT22;10970;48.714;9.584;2023-05-06T00:51:48;14.00;99.90
21616;DHT22;10970;48.714;9.584;2023-05-06T00:54:14;14.00;99.90
21616;DHT22;10970;48.714;9.584;2023-05-06T00:56:40;14.00;99.90
21616;DHT22;10970;48.714;9.584;2023-05-06T00:59:06;14.10;99.90
21616;DHT22;10970;48.714;9.584;2023-05-06T01:01:32;14.00;99.90
21616;DHT22;10970;48.714;9.584;2023-05-06T01:03:59;14.10;99.90
21616;DHT22;10970;48.714;9.584;2023-05-06T01:06:28;14.00;99.90
21616;DHT22;10970;48.714;9.584;2023-05-06T01:12:01;13.90;99.90
21616;DHT22;10970;48.714;9.584;2023-05-06T01:14:45;13.90;99.90
21616;DHT22;10970;48.714;9.584;2023-05-06T01:17:17;13.90;99.90
21616;DHT22;10970;48.714;9.584;2023-05-06T01:19:46;13.90;99.90
21616;DHT22;10970;48.714;9.584;2023-05-06T01:22:14;13.90;99.90
21616;DHT22;10970;48.714;9.584;2023-05-06T01:24:44;13.90;99.90
21616;DHT22;10970;48.714;9.584;2023-05-06T01:27:11;13.90;99.90
21616;DHT22;10970;48.714;9.584;2023-05-06T01:29:40;14.00;99.90
21616;DHT22;10970;48.714;9.584;2023-05-06T01:35:05;13.90;99.90
21616;DHT22;10970;48.714;9.584;2023-05-06T01:37:43;13.90;99.90
21616;DHT22;10970;48.714;9.584;2023-05-06T01:40:10;13.90;99.90
21616;DHT22;10970;48.714;9.584;2023-05-06T01:42:39;13.90;99.90
21616;DHT22;10970;48.714;9.584;2023-05-06T01:45:06;13.80;99.90
21616;DHT22;10970;48.714;9.584;2023-05-06T01:47:32;13.90;99.90
21616;DHT22;10970;48.714;9.584;2023-05-06T01:50:00;13.80;99.90
21616;DHT22;10970;48.714;9.584;2023-05-06T01:52:26;13.90;99.90
21616;DHT22;10970;48.714;9.584;2023-05-06T01:54:51;13.90;99.90
21616;DHT22;10970;48.714;9.584;2023-05-06T01:57:17;13.90;99.90
21616;DHT22;10970;48.714;9.584;2023-05-06T01:59:43;13.90;99.90
21616;DHT22;10970;48.714;9.584;2023-05-06T02:02:08;13.90;99.90
21616;DHT22;10970;48.714;9.584;2023-05-06T02:04:34;13.90;99.90
21616;DHT22;10970;48.714;9.584;2023-05-06T02:07:00;13.90;99.90
21616;DHT22;10970;48.714;9.584;2023-05-06T02:09:26;13.80;99.90
21616;DHT22;10970;48.714;9.584;2023-05-06T02:11:51;13.80;99.90
21616;DHT22;10970;48.714;9.584;2023-05-06T02:14:17;13.80;99.90
21616;DHT22;10970;48.714;9.584;2023-05-06T02:16:42;13.80;99.90
21616;DHT22;10970;48.714;9.584;2023-05-06T02:19:08;13.80;99.90
21616;DHT22;10970;48.714;9.584;2023-05-06T02:21:34;13.80;99.90
21616;DHT22;10970;48.714;9.584;2023-05-06T02:24:00;13.80;99.90
21616;DHT22;10970;48.714;9.584;2023-05-06T02:26:25;13.80;99.90
21616;DHT22;10970;48.714;9.584;2023-05-06T02:28:51;13.80;99.90
21616;DHT22;10970;48.714;9.584;2023-05-06T02:31:17;13.80;99.90
21616;DHT22;10970;48.714;9.584;2023-05-06T02:33:44;13.70;99.90
21616;DHT22;10970;48.714;9.584;2023-05-06T02:36:09;13.70;99.90
21616;DHT22;10970;48.714;9.584;2023-05-06T02:38:35;13.70;99.90
21616;DHT22;10970;48.714;9.584;2023-05-06T02:41:01;13.70;99.90
21616;DHT22;10970;48.714;9.584;2023-05-06T02:43:26;13.70;99.90
21616;DHT22;10970;48.714;9.584;2023-05-06T02:45:52;13.70;99.90
21616;DHT22;10970;48.714;9.584;2023-05-06T02:48:18;13.70;99.90
21616;DHT22;10970;48.714;9.584;2023-05-06T02:50:43;13.70;99.90
21616;DHT22;10970;48.714;9.584;2023-05-06T02:53:09;13.70;99.90
21616;DHT22;10970;48.714;9.584;2023-05-06T02:55:37;13.70;99.90
21616;DHT22;10970;48.714;9.584;2023-05-06T02:58:03;13.70;99.90
21616;DHT22;10970;48.714;9.584;2023-05-06T03:00:29;13.60;99.90
21616;DHT22;10970;48.714;9.584;2023-05-06T03:02:55;13.60;99.90
21616;DHT22;10970;48.714;9.584;2023-05-06T03:05:21;13.60;99.90
21616;DHT22;10970;48.714;9.584;2023-05-06T03:07:46;13.60;99.90
21616;DHT22;10970;48.714;9.584;2023-05-06T03:10:12;13.50;99.90
21616;DHT22;10970;48.714;9.584;2023-05-06T03:12:38;13.50;99.90
21616;DHT22;10970;48.714;9.584;2023-05-06T03:15:04;13.50;99.90
21616;DHT22;10970;48.714;9.584;2023-05-06T03:17:30;13.50;99.90
21616;DHT22;10970;48.714;9.584;2023-05-06T03:19:55;13.50;99.90
21616;DHT22;10970;48.714;9.584;2023-05-06T03:22:21;13.50;99.90
21616;DHT22;10970;48.714;9.584;2023-05-06T03:24:47;13.40;99.90
21616;DHT22;10970;48.714;9.584;2023-05-06T03:27:12;13.40;99.90
21616;DHT22;10970;48.714;9.584;2023-05-06T03:29:38;13.40;99.90
21616;DHT22;10970;48.714;9.584;2023-05-06T03:32:04;13.40;99.90
21616;DHT22;10970;48.714;9.584;2023-05-06T03:34:30;13.40;99.90
21616;DHT22;10970;48.714;9.584;2023-05-06T03:36:56;13.30;99.90
21616;DHT22;10970;48.714;9.584;2023-05-06T03:39:22;13.30;99.90
21616;DHT22;10970;48.714;9.584;2023-05-06T03:41:48;13.30;99.90
21616;DHT22;10970;48.714;9.584;2023-05-06T03:44:14;13.20;99.90
21616;DHT22;10970;48.714;9.584;2023-05-06T03:46:39;13.20;99.90
21616;DHT22;10970;48.714;9.584;2023-05-06T03:49:06;13.20;99.90
21616;DHT22;10970;48.714;9.584;2023-05-06T03:51:32;13.20;99.90
21616;DHT22;10970;48.714;9.584;2023-05-06T03:53:58;13.20;99.90
21616;DHT22;10970;48.714;9.584;2023-05-06T03:56:24;13.20;99.90
21616;DHT22;10970;48.714;9.584;2023-05-06T03:58:50;13.10;99.90
21616;DHT22;10970;48.714;9.584;2023-05-06T04:01:16;13.10;99.90
21616;DHT22;10970;48.714;9.584;2023-05-06T04:03:43;13.10;99.90
21616;DHT22;10970;48.714;9.584;2023-05-06T04:06:08;12.90;99.90
21616;DHT22;10970;48.714;9.584;2023-05-06T04:08:34;12.80;99.90
21616;DHT22;10970;48.714;9.584;2023-05-06T04:11:07;12.70;99.90
21616;DHT22;10970;48.714;9.584;2023-05-06T04:13:33;12.60;99.90
21616;DHT22;10970;48.714;9.584;2023-05-06T04:15:59;12.70;99.90
21616;DHT22;10970;48.714;9.584;2023-05-06T04:18:25;12.70;99.90
21616;DHT22;10970;48.714;9.584;2023-05-06T04:20:51;12.70;99.90
21616;DHT22;10970;48.714;9.584;2023-05-06T04:23:16;12.70;99.90
21616;DHT22;10970;48.714;9.584;2023-05-06T04:25:44;12.70;99.90
21616;DHT22;10970;48.714;9.584;2023-05-06T04:28:13;12.80;99.90
21616;DHT22;10970;48.714;9.584;2023-05-06T04:30:41;12.90;99.90
21616;DHT22;10970;48.714;9.584;2023-05-06T04:33:07;13.00;99.90
21616;DHT22;10970;48.714;9.584;2023-05-06T04:35:33;13.00;99.90
21616;DHT22;10970;48.714;9.584;2023-05-06T04:37:59;13.00;99.90
21616;DHT22;10970;48.714;9.584;2023-05-06T04:40:26;13.10;99.90
21616;DHT22;10970;48.714;9.584;2023-05-06T04:42:52;13.10;99.90
21616;DHT22;10970;48.714;9.584;2023-05-06T04:45:18;13.10;99.90
21616;DHT22;10970;48.714;9.584;2023-05-06T04:47:44;13.00;99.90
21616;DHT22;10970;48.714;9.584;2023-05-06T04:50:10;13.00;99.90
21616;DHT22;10970;48.714;9.584;2023-05-06T04:52:36;13.00;99.90
21616;DHT22;10970;48.714;9.584;2023-05-06T04:55:02;13.00;99.90
21616;DHT22;10970;48.714;9.584;2023-05-06T04:57:29;13.00;99.90
21616;DHT22;10970;48.714;9.584;2023-05-06T04:59:55;12.90;99.90
21616;DHT22;10970;48.714;9.584;2023-05-06T05:02:21;12.90;99.90
21616;DHT22;10970;48.714;9.584;2023-05-06T05:04:47;12.90;99.90
21616;DHT22;10970;48.714;9.584;2023-05-06T05:07:12;12.80;99.90
21616;DHT22;10970;48.714;9.584;2023-05-06T05:09:38;12.90;99.90
21616;DHT22;10970;48.714;9.584;2023-05-06T05:12:04;13.00;99.90
21616;DHT22;10970;48.714;9.584;2023-05-06T05:14:29;13.00;99.90
21616;DHT22;10970;48.714;9.584;2023-05-06T05:16:55;13.00;99.90
21616;DHT22;10970;48.714;9.584;2023-05-06T05:19:21;13.00;99.90
21616;DHT22;10970;48.714;9.584;2023-05-06T05:21:47;13.10;99.90
21616;DHT22;10970;48.714;9.584;2023-05-06T05:24:12;13.20;99.90
21616;DHT22;10970;48.714;9.584;2023-05-06T05:26:38;13.30;99.90
21616;DHT22;10970;48.714;9.584;2023-05-06T05:29:04;13.50;99.90
21616;DHT22;10970;48.714;9.584;2023-05-06T05:31:31;13.60;99.90
21616;DHT22;10970;48.714;9.584;2023-05-06T05:33:56;13.70;99.90
21616;DHT22;10970;48.714;9.584;2023-05-06T05:36:22;13.60;99.90
21616;DHT22;10970;48.714;9.584;2023-05-06T05:38:48;13.50;99.90
21616;DHT22;10970;48.714;9.584;2023-05-06T05:41:15;13.40;99.90
21616;DHT22;10970;48.714;9.584;2023-05-06T05:43:41;13.50;99.90
21616;DHT22;10970;48.714;9.584;2023-05-06T05:46:06;13.50;99.90
21616;DHT22;10970;48.714;9.584;2023-05-06T05:48:32;13.60;99.90
21616;DHT22;10970;48.714;9.584;2023-05-06T05:51:00;13.50;99.90
21616;DHT22;10970;48.714;9.584;2023-05-06T05:53:26;13.60;99.90
21616;DHT22;10970;48.714;9.584;2023-05-06T05:55:52;13.70;99.90
21616;DHT22;10970;48.714;9.584;2023-05-06T05:58:17;13.90;99.90
21616;DHT22;10970;48.714;9.584;2023-05-06T06:00:43;13.90;99.90
21616;DHT22;10970;48.714;9.584;2023-05-06T06:03:09;14.00;99.90
21616;DHT22;10970;48.714;9.584;2023-05-06T06:05:35;14.10;99.90
21616;DHT22;10970;48.714;9.584;2023-05-06T06:08:01;14.20;99.90
21616;DHT22;10970;48.714;9.584;2023-05-06T06:10:27;14.30;99.90
21616;DHT22;10970;48.714;9.584;2023-05-06T06:12:52;14.30;99.90
21616;DHT22;10970;48.714;9.584;2023-05-06T06:15:21;14.30;99.90
21616;DHT22;10970;48.714;9.584;2023-05-06T06:17:46;14.20;99.90
21616;DHT22;10970;48.714;9.584;2023-05-06T06:20:12;14.20;99.90
21616;DHT22;10970;48.714;9.584;2023-05-06T06:22:38;14.30;99.90
21616;DHT22;10970;48.714;9.584;2023-05-06T06:25:04;14.20;99.90
21616;DHT22;10970;48.714;9.584;2023-05-06T06:27:33;14.30;99.90
21616;DHT22;10970;48.714;9.584;2023-05-06T06:30:00;14.30;99.90
21616;DHT22;10970;48.714;9.584;2023-05-06T06:32:25;14.30;99.90
21616;DHT22;10970;48.714;9.584;2023-05-06T06:34:53;14.60;99.90
21616;DHT22;10970;48.714;9.584;2023-05-06T06:37:19;14.80;99.90
21616;DHT22;10970;48.714;9.584;2023-05-06T06:39:45;14.90;99.90
21616;DHT22;10970;48.714;9.584;2023-05-06T06:42:10;15.30;99.90
21616;DHT22;10970;48.714;9.584;2023-05-06T06:44:36;15.50;99.90
21616;DHT22;10970;48.714;9.584;2023-05-06T06:47:01;15.60;99.90
21616;DHT22;10970;48.714;9.584;2023-05-06T06:49:29;15.50;99.90
21616;DHT22;10970;48.714;9.584;2023-05-06T06:51:55;15.50;99.90
21616;DHT22;10970;48.714;9.584;2023-05-06T06:54:22;15.60;99.90
21616;DHT22;10970;48.714;9.584;2023-05-06T06:56:48;16.00;99.90
21616;DHT22;10970;48.714;9.584;2023-05-06T06:59:13;16.40;99.90
21616;DHT22;10970;48.714;9.584;2023-05-06T07:01:42;16.70;99.90
21616;DHT22;10970;48.714;9.584;2023-05-06T07:04:07;16.90;99.90
21616;DHT22;10970;48.714;9.584;2023-05-06T07:06:33;17.00;99.90
21616;DHT22;10970;48.714;9.584;2023-05-06T07:08:59;17.10;99.90
21616;DHT22;10970;48.714;9.584;2023-05-06T07:11:24;17.30;99.90
21616;DHT22;10970;48.714;9.584;2023-05-06T07:13:50;17.70;99.90
21616;DHT22;10970;48.714;9.584;2023-05-06T07:16:16;17.70;99.90
21616;DHT22;10970;48.714;9.584;2023-05-06T07:18:41;17.60;99.90
21616;DHT22;10970;48.714;9.584;2023-05-06T07:21:07;17.50;99.90
21616;DHT22;10970;48.714;9.584;2023-05-06T07:23:33;17.60;99.90
21616;DHT22;10970;48.714;9.584;2023-05-06T07:25:58;17.70;99.90
21616;DHT22;10970;48.714;9.584;2023-05-06T07:28:24;18.30;99.90
21616;DHT22;10970;48.714;9.584;2023-05-06T07:30:51;18.60;99.90
21616;DHT22;10970;48.714;9.584;2023-05-06T07:33:17;18.90;99.90
21616;DHT22;10970;48.714;9.584;2023-05-06T07:35:42;19.30;99.90
21616;DHT22;10970;48.714;9.584;2023-05-06T07:38:08;19.40;99.90
21616;DHT22;10970;48.714;9.584;2023-05-06T07:40:34;19.30;99.90
21616;DHT22;10970;48.714;9.584;2023-05-06T07:43:01;19.30;99.90
21616;DHT22;10970;48.714;9.584;2023-05-06T07:45:27;18.90;99.90
21616;DHT22;10970;48.714;9.584;2023-05-06T07:47:52;18.70;99.90
21616;DHT22;10970;48.714;9.584;2023-05-06T07:50:18;18.70;99.90
21616;DHT22;10970;48.714;9.584;2023-05-06T07:52:44;18.40;99.90
21616;DHT22;10970;48.714;9.584;2023-05-06T07:55:09;18.70;99.90
21616;DHT22;10970;48.714;9.584;2023-05-06T07:57:35;18.70;99.90
21616;DHT22;10970;48.714;9.584;2023-05-06T08:00:02;18.60;99.90
21616;DHT22;10970;48.714;9.584;2023-05-06T08:02:27;18.70;99.90
21616;DHT22;10970;48.714;9.584;2023-05-06T08:04:54;19.30;99.90
21616;DHT22;10970;48.714;9.584;2023-05-06T08:07:20;19.10;99.90
21616;DHT22;10970;48.714;9.584;2023-05-06T08:09:45;19.20;99.90
21616;DHT22;10970;48.714;9.584;2023-05-06T08:12:11;19.30;99.90
21616;DHT22;10970;48.714;9.584;2023-05-06T08:14:37;19.60;99.90
21616;DHT22;10970;48.714;9.584;2023-05-06T08:17:02;20.30;99.90
21616;DHT22;10970;48.714;9.584;2023-05-06T08:19:28;20.70;99.90
21616;DHT22;10970;48.714;9.584;2023-05-06T08:21:54;20.30;99.90
21616;DHT22;10970;48.714;9.584;2023-05-06T08:24:19;19.50;99.90
21616;DHT22;10970;48.714;9.584;2023-05-06T08:26:45;18.90;99.90
21616;DHT22;10970;48.714;9.584;2023-05-06T08:29:11;18.60;99.90
21616;DHT22;10970;48.714;9.584;2023-05-06T08:31:37;18.40;99.90
21616;DHT22;10970;48.714;9.584;2023-05-06T08:34:03;18.30;99.90
21616;DHT22;10970;48.714;9.584;2023-05-06T08:36:29;18.80;99.90
21616;DHT22;10970;48.714;9.584;2023-05-06T08:38:55;19.30;99.90
21616;DHT22;10970;48.714;9.584;2023-05-06T08:41:21;19.80;99.90
21616;DHT22;10970;48.714;9.584;2023-05-06T08:43:48;20.50;99.90
21616;DHT22;10970;48.714;9.584;2023-05-06T08:46:15;21.00;99.90
21616;DHT22;10970;48.714;9.584;2023-05-06T08:48:40;21.10;99.90
21616;DHT22;10970;48.714;9.584;2023-05-06T08:51:07;21.00;99.90
21616;DHT22;10970;48.714;9.584;2023-05-06T08:53:33;20.80;99.90
21616;DHT22;10970;48.714;9.584;2023-05-06T08:56:05;21.10;99.90
21616;DHT22;10970;48.714;9.584;2023-05-06T08:58:35;21.30;99.90
21616;DHT22;10970;48.714;9.584;2023-05-06T09:01:03;21.10;99.90
21616;DHT22;10970;48.714;9.584;2023-05-06T09:03:29;21.00;99.90
21616;DHT22;10970;48.714;9.584;2023-05-06T09:05:57;21.00;99.90
21616;DHT22;10970;48.714;9.584;2023-05-06T09:08:23;21.10;99.90
21616;DHT22;10970;48.714;9.584;2023-05-06T09:10:49;21.20;99.90
21616;DHT22;10970;48.714;9.584;2023-05-06T09:13:16;21.40;99.90
21616;DHT22;10970;48.714;9.584;2023-05-06T09:15:43;21.50;99.90
21616;DHT22;10970;48.714;9.584;2023-05-06T09:18:10;21.60;99.90
21616;DHT22;10970;48.714;9.584;2023-05-06T09:20:46;21.70;99.90
21616;DHT22;10970;48.714;9.584;2023-05-06T09:23:14;21.90;99.90
21616;DHT22;10970;48.714;9.584;2023-05-06T09:25:41;21.90;99.90
21616;DHT22;10970;48.714;9.584;2023-05-06T09:28:10;21.90;99.90
21616;DHT22;10970;48.714;9.584;2023-05-06T09:30:42;21.50;99.90
21616;DHT22;10970;48.714;9.584;2023-05-06T09:33:09;21.40;99.90
21616;DHT22;10970;48.714;9.584;2023-05-06T09:35:37;21.80;99.90
21616;DHT22;10970;48.714;9.584;2023-05-06T09:38:04;22.00;99.90
21616;DHT22;10970;48.714;9.584;2023-05-06T09:40:30;21.80;99.90
21616;DHT22;10970;48.714;9.584;2023-05-06T09:42:56;21.60;99.90
21616;DHT22;10970;48.714;9.584;2023-05-06T09:45:22;21.20;99.90
21616;DHT22;10970;48.714;9.584;2023-05-06T09:47:49;21.40;99.90
21616;DHT22;10970;48.714;9.584;2023-05-06T09:50:15;21.60;99.90
21616;DHT22;10970;48.714;9.584;2023-05-06T09:52:44;21.60;99.90
21616;DHT22;10970;48.714;9.584;2023-05-06T09:55:10;21.20;99.90
21616;DHT22;10970;48.714;9.584;2023-05-06T09:57:37;20.80;99.90
21616;DHT22;10970;48.714;9.584;2023-05-06T10:00:03;20.60;99.90
21616;DHT22;10970;48.714;9.584;2023-05-06T10:02:31;20.50;99.90
21616;DHT22;10970;48.714;9.584;2023-05-06T10:04:57;20.40;99.90
21616;DHT22;10970;48.714;9.584;2023-05-06T10:07:24;20.40;99.90
21616;DHT22;10970;48.714;9.584;2023-05-06T10:09:53;20.40;99.90
21616;DHT22;10970;48.714;9.584;2023-05-06T10:12:21;20.60;99.90
21616;DHT22;10970;48.714;9.584;2023-05-06T10:14:47;20.70;99.90
21616;DHT22;10970;48.714;9.584;2023-05-06T10:17:13;20.60;99.90
21616;DHT22;10970;48.714;9.584;2023-05-06T10:19:42;20.70;99.90
21616;DHT22;10970;48.714;9.584;2023-05-06T10:24:58;20.20;99.90
21616;DHT22;10970;48.714;9.584;2023-05-06T10:27:29;20.10;99.90
21616;DHT22;10970;48.714;9.584;2023-05-06T10:29:58;20.40;99.90
21616;DHT22;10970;48.714;9.584;2023-05-06T10:32:26;20.60;99.90
21616;DHT22;10970;48.714;9.584;2023-05-06T10:34:56;20.20;99.90
21616;DHT22;10970;48.714;9.584;2023-05-06T10:37:25;20.20;99.90
21616;DHT22;10970;48.714;9.584;2023-05-06T10:39:53;20.20;99.90
21616;DHT22;10970;48.714;9.584;2023-05-06T10:42:19;20.20;99.90
21616;DHT22;10970;48.714;9.584;2023-05-06T10:45:03;20.30;99.90
21616;DHT22;10970;48.714;9.584;2023-05-06T10:48:05;20.30;99.90
21616;DHT22;10970;48.714;9.584;2023-05-06T10:50:31;20.10;99.90
21616;DHT22;10970;48.714;9.584;2023-05-06T10:52:58;20.20;99.90
21616;DHT22;10970;48.714;9.584;2023-05-06T10:55:26;20.00;99.90
21616;DHT22;10970;48.714;9.584;2023-05-06T10:58:02;20.20;99.90
21616;DHT22;10970;48.714;9.584;2023-05-06T11:00:33;20.40;99.90
21616;DHT22;10970;48.714;9.584;2023-05-06T11:03:05;20.60;99.90
21616;DHT22;10970;48.714;9.584;2023-05-06T11:05:48;20.60;99.90
21616;DHT22;10970;48.714;9.584;2023-05-06T11:08:14;21.00;99.90
21616;DHT22;10970;48.714;9.584;2023-05-06T11:10:40;21.00;99.90
21616;DHT22;10970;48.714;9.584;2023-05-06T11:13:25;20.80;99.90
21616;DHT22;10970;48.714;9.584;2023-05-06T11:15:52;20.70;99.90
21616;DHT22;10970;48.714;9.584;2023-05-06T11:26:15;20.50;99.90
21616;DHT22;10970;48.714;9.584;2023-05-06T11:28:45;20.30;99.90
21616;DHT22;10970;48.714;9.584;2023-05-06T11:31:12;20.30;99.90
21616;DHT22;10970;48.714;9.584;2023-05-06T11:33:44;20.20;99.90
21616;DHT22;10970;48.714;9.584;2023-05-06T11:36:16;20.20;99.90
21616;DHT22;10970;48.714;9.584;2023-05-06T11:38:44;20.30;99.90
21616;DHT22;10970;48.714;9.584;2023-05-06T11:41:10;20.40;99.90
21616;DHT22;10970;48.714;9.584;2023-05-06T11:43:36;20.40;99.90
21616;DHT22;10970;48.714;9.584;2023-05-06T11:46:01;20.40;99.90
21616;DHT22;10970;48.714;9.584;2023-05-06T11:48:27;20.60;99.90
21616;DHT22;10970;48.714;9.584;2023-05-06T11:50:53;20.60;99.90
21616;DHT22;10970;48.714;9.584;2023-05-06T11:53:22;20.60;99.90
21616;DHT22;10970;48.714;9.584;2023-05-06T11:55:51;20.80;99.90
21616;DHT22;10970;48.714;9.584;2023-05-06T11:58:19;20.90;99.90
21616;DHT22;10970;48.714;9.584;2023-05-06T12:00:49;20.90;99.90
21616;DHT22;10970;48.714;9.584;2023-05-06T12:03:20;20.70;99.90
21616;DHT22;10970;48.714;9.584;2023-05-06T12:05:47;20.70;99.90
21616;DHT22;10970;48.714;9.584;2023-05-06T12:08:15;20.30;99.90
21616;DHT22;10970;48.714;9.584;2023-05-06T12:10:41;20.00;99.90
21616;DHT22;10970;48.714;9.584;2023-05-06T12:13:07;20.10;99.90
21616;DHT22;10970;48.714;9.584;2023-05-06T12:15:34;20.00;99.90
21616;DHT22;10970;48.714;9.584;2023-05-06T12:18:01;20.20;99.90
21616;DHT22;10970;48.714;9.584;2023-05-06T12:20:27;20.10;99.90
21616;DHT22;10970;48.714;9.584;2023-05-06T12:23:10;20.20;99.90
21616;DHT22;10970;48.714;9.584;2023-05-06T12:25:37;20.40;99.90
21616;DHT22;10970;48.714;9.584;2023-05-06T12:28:16;20.20;99.90
21616;DHT22;10970;48.714;9.584;2023-05-06T12:30:42;20.10;99.90
21616;DHT22;10970;48.714;9.584;2023-05-06T12:33:08;20.20;99.90
21616;DHT22;10970;48.714;9.584;2023-05-06T12:35:34;20.40;99.90
21616;DHT22;10970;48.714;9.584;2023-05-06T12:38:14;20.30;99.90
21616;DHT22;10970;48.714;9.584;2023-05-06T12:40:41;20.20;99.90
21616;DHT22;10970;48.714;9.584;2023-05-06T12:43:08;20.30;99.90
21616;DHT22;10970;48.714;9.584;2023-05-06T12:45:34;20.40;99.90
21616;DHT22;10970;48.714;9.584;2023-05-06T12:48:01;20.50;99.90
21616;DHT22;10970;48.714;9.584;2023-05-06T12:50:34;20.70;99.90
21616;DHT22;10970;48.714;9.584;2023-05-06T12:53:00;20.70;99.90
21616;DHT22;10970;48.714;9.584;2023-05-06T12:55:26;20.70;99.90
21616;DHT22;10970;48.714;9.584;2023-05-06T12:57:52;20.70;99.90
21616;DHT22;10970;48.714;9.584;2023-05-06T13:00:18;20.90;99.90
21616;DHT22;10970;48.714;9.584;2023-05-06T13:02:45;21.00;99.90
21616;DHT22;10970;48.714;9.584;2023-05-06T13:05:10;21.00;99.90
21616;DHT22;10970;48.714;9.584;2023-05-06T13:07:36;21.00;99.90
21616;DHT22;10970;48.714;9.584;2023-05-06T13:10:02;21.00;99.90
21616;DHT22;10970;48.714;9.584;2023-05-06T13:12:28;20.90;99.90
21616;DHT22;10970;48.714;9.584;2023-05-06T13:14:54;20.90;99.90
21616;DHT22;10970;48.714;9.584;2023-05-06T13:17:19;20.70;99.90
21616;DHT22;10970;48.714;9.584;2023-05-06T13:19:45;20.90;99.90
21616;DHT22;10970;48.714;9.584;2023-05-06T13:22:11;21.10;99.90
21616;DHT22;10970;48.714;9.584;2023-05-06T13:24:37;21.10;99.90
21616;DHT22;10970;48.714;9.584;2023-05-06T13:27:03;21.10;99.90
21616;DHT22;10970;48.714;9.584;2023-05-06T13:29:28;21.20;99.90
21616;DHT22;10970;48.714;9.584;2023-05-06T13:31:54;21.40;99.90
21616;DHT22;10970;48.714;9.584;2023-05-06T13:34:20;21.60;99.90
21616;DHT22;10970;48.714;9.584;2023-05-06T13:36:47;21.50;99.90
21616;DHT22;10970;48.714;9.584;2023-05-06T13:39:14;21.70;99.90
21616;DHT22;10970;48.714;9.584;2023-05-06T13:41:41;21.80;99.90
21616;DHT22;10970;48.714;9.584;2023-05-06T13:44:06;21.90;99.90
21616;DHT22;10970;48.714;9.584;2023-05-06T13:46:32;21.80;99.90
21616;DHT22;10970;48.714;9.584;2023-05-06T13:48:59;21.70;99.90
21616;DHT22;10970;48.714;9.584;2023-05-06T13:51:24;21.80;99.90
21616;DHT22;10970;48.714;9.584;2023-05-06T13:54:07;21.90;99.90
21616;DHT22;10970;48.714;9.584;2023-05-06T13:56:33;22.00;99.90
21616;DHT22;10970;48.714;9.584;2023-05-06T13:58:59;21.60;99.90
21616;DHT22;10970;48.714;9.584;2023-05-06T14:01:25;21.50;99.90
21616;DHT22;10970;48.714;9.584;2023-05-06T14:03:51;21.50;99.90
21616;DHT22;10970;48.714;9.584;2023-05-06T14:06:17;21.30;99.90
21616;DHT22;10970;48.714;9.584;2023-05-06T14:08:43;21.20;99.90
21616;DHT22;10970;48.714;9.584;2023-05-06T14:11:09;21.30;99.90
21616;DHT22;10970;48.714;9.584;2023-05-06T14:13:35;21.30;99.90
21616;DHT22;10970;48.714;9.584;2023-05-06T14:16:02;21.30;99.90
21616;DHT22;10970;48.714;9.584;2023-05-06T14:18:29;21.40;99.90
21616;DHT22;10970;48.714;9.584;2023-05-06T14:20:55;21.50;99.90
21616;DHT22;10970;48.714;9.584;2023-05-06T14:23:21;21.50;99.90
21616;DHT22;10970;48.714;9.584;2023-05-06T14:25:47;21.60;99.90
21616;DHT22;10970;48.714;9.584;2023-05-06T14:28:13;21.60;99.90
21616;DHT22;10970;48.714;9.584;2023-05-06T14:30:40;21.60;99.90
21616;DHT22;10970;48.714;9.584;2023-05-06T14:33:06;21.60;99.90
21616;DHT22;10970;48.714;9.584;2023-05-06T14:35:31;21.50;99.90
21616;DHT22;10970;48.714;9.584;2023-05-06T14:37:57;21.50;99.90
21616;DHT22;10970;48.714;9.584;2023-05-06T14:40:23;21.30;99.90
21616;DHT22;10970;48.714;9.584;2023-05-06T14:42:48;21.20;99.90
21616;DHT22;10970;48.714;9.584;2023-05-06T14:45:14;21.20;99.90
21616;DHT22;10970;48.714;9.584;2023-05-06T14:47:41;21.30;99.90
21616;DHT22;10970;48.714;9.584;2023-05-06T14:50:08;21.20;99.90
21616;DHT22;10970;48.714;9.584;2023-05-06T14:52:35;21.10;99.90
21616;DHT22;10970;48.714;9.584;2023-05-06T14:55:01;21.20;99.90
21616;DHT22;10970;48.714;9.584;2023-05-06T14:57:27;21.20;99.90
21616;DHT22;10970;48.714;9.584;2023-05-06T14:59:53;21.40;99.90
21616;DHT22;10970;48.714;9.584;2023-05-06T15:02:18;21.50;99.90
21616;DHT22;10970;48.714;9.584;2023-05-06T15:04:44;21.50;99.90
21616;DHT22;10970;48.714;9.584;2023-05-06T15:07:10;21.50;99.90
21616;DHT22;10970;48.714;9.584;2023-05-06T15:09:36;21.50;99.90
21616;DHT22;10970;48.714;9.584;2023-05-06T15:12:07;21.60;99.90
21616;DHT22;10970;48.714;9.584;2023-05-06T15:14:32;21.60;99.90
21616;DHT22;10970;48.714;9.584;2023-05-06T15:16:58;21.60;99.90
21616;DHT22;10970;48.714;9.584;2023-05-06T15:19:24;21.60;99.90
21616;DHT22;10970;48.714;9.584;2023-05-06T15:21:49;21.60;99.90
21616;DHT22;10970;48.714;9.584;2023-05-06T15:24:15;21.70;99.90
21616;DHT22;10970;48.714;9.584;2023-05-06T15:26:41;21.60;99.90
21616;DHT22;10970;48.714;9.584;2023-05-06T15:29:06;21.70;99.90
21616;DHT22;10970;48.714;9.584;2023-05-06T15:31:32;21.80;99.90
21616;DHT22;10970;48.714;9.584;2023-05-06T15:34:04;21.80;99.90
21616;DHT22;10970;48.714;9.584;2023-05-06T15:36:30;21.80;99.90
21616;DHT22;10970;48.714;9.584;2023-05-06T15:38:57;21.60;99.90
21616;DHT22;10970;48.714;9.584;2023-05-06T15:41:25;21.60;99.90
21616;DHT22;10970;48.714;9.584;2023-05-06T15:43:53;21.60;99.90